createdAt,value
2023-05-22T00:02:26.790Z,17.90
2023-05-22T00:05:15.756Z,17.90
2023-05-22T00:08:04.928Z,17.90
2023-05-22T00:10:53.104Z,17.80
2023-05-22T00:13:40.707Z,17.80
2023-05-22T00:16:28.293Z,17.80
2023-05-22T00:19:16.944Z,17.70
2023-05-22T00:22:05.597Z,17.70
2023-05-22T00:24:53.137Z,17.70
2023-05-22T00:27:40.705Z,17.70
2023-05-22T00:30:28.224Z,17.60
2023-05-22T00:33:16.173Z,17.60
2023-05-22T00:36:04.042Z,17.60
2023-05-22T00:38:51.607Z,17.60
2023-05-22T00:41:39.244Z,17.60
2023-05-22T00:44:27.345Z,17.60
2023-05-22T00:47:15.160Z,17.50
2023-05-22T00:50:04.462Z,17.50
2023-05-22T00:52:52.163Z,17.50
2023-05-22T00:55:40.554Z,17.50
2023-05-22T00:58:28.280Z,17.50
2023-05-22T01:01:18.058Z,17.40
2023-05-22T01:04:08.294Z,17.40
2023-05-22T01:06:56.044Z,17.30
2023-05-22T01:09:44.582Z,17.40
2023-05-22T01:12:50.824Z,17.30
2023-05-22T01:15:50.640Z,17.30
2023-05-22T01:19:43.835Z,17.30
2023-05-22T01:23:15.178Z,17.30
2023-05-22T01:26:06.174Z,17.20
2023-05-22T01:28:53.651Z,17.10
2023-05-22T01:31:47.617Z,17.10
2023-05-22T01:34:37.341Z,17.00
2023-05-22T01:37:26.289Z,16.90
2023-05-22T01:40:14.846Z,16.90
2023-05-22T01:43:02.795Z,16.80
2023-05-22T01:45:50.723Z,16.70
2023-05-22T01:48:38.347Z,16.60
2023-05-22T01:51:56.467Z,16.60
2023-05-22T01:54:53.990Z,16.60
2023-05-22T01:58:15.812Z,16.60
2023-05-22T02:01:04.640Z,16.60
2023-05-22T02:03:57.759Z,16.60
2023-05-22T02:06:46.428Z,16.60
2023-05-22T02:09:36.065Z,16.60
2023-05-22T02:12:24.901Z,16.50
2023-05-22T02:15:12.864Z,16.50
2023-05-22T02:18:02.023Z,16.40
2023-05-22T02:20:49.766Z,16.50
2023-05-22T02:23:38.104Z,16.50
2023-05-22T02:26:25.826Z,16.50
2023-05-22T02:29:14.136Z,16.60
2023-05-22T02:32:01.930Z,16.60
2023-05-22T02:34:49.429Z,16.60
2023-05-22T02:37:38.093Z,16.70
2023-05-22T02:40:25.612Z,16.70
2023-05-22T02:43:13.189Z,16.60
2023-05-22T02:46:01.172Z,16.60
2023-05-22T02:48:49.000Z,16.60
2023-05-22T02:51:36.852Z,16.60
2023-05-22T02:54:24.432Z,16.60
2023-05-22T02:57:11.902Z,16.50
2023-05-22T02:59:59.616Z,16.40
2023-05-22T03:02:47.457Z,16.40
2023-05-22T03:05:35.259Z,16.40
2023-05-22T03:08:22.741Z,16.30
2023-05-22T03:11:11.565Z,16.30
2023-05-22T03:13:59.127Z,16.30
2023-05-22T03:16:46.760Z,16.20
2023-05-22T03:19:34.396Z,16.20
2023-05-22T03:22:23.315Z,16.20
2023-05-22T03:25:11.354Z,16.20
2023-05-22T03:27:58.875Z,16.20
2023-05-22T03:30:46.905Z,16.30
2023-05-22T03:33:34.511Z,16.30
2023-05-22T03:36:23.356Z,16.20
2023-05-22T03:39:10.912Z,16.30
2023-05-22T03:41:58.467Z,16.30
2023-05-22T03:44:46.321Z,16.20
2023-05-22T03:47:33.955Z,16.20
2023-05-22T03:50:21.587Z,16.20
2023-05-22T03:53:09.179Z,16.20
2023-05-22T03:55:59.651Z,16.20
2023-05-22T03:58:47.324Z,16.30
2023-05-22T04:01:34.947Z,16.40
2023-05-22T04:04:23.018Z,16.40
2023-05-22T04:07:13.463Z,16.70
2023-05-22T04:10:01.060Z,16.90
2023-05-22T04:12:48.616Z,17.00
2023-05-22T04:15:36.795Z,17.10
2023-05-22T04:18:24.464Z,17.10
2023-05-22T04:21:12.907Z,17.20
2023-05-22T04:24:01.932Z,17.30
2023-05-22T04:26:52.987Z,17.50
2023-05-22T04:29:41.687Z,17.90
2023-05-22T04:32:29.888Z,18.30
2023-05-22T04:35:19.610Z,18.70
2023-05-22T04:38:07.556Z,19.10
2023-05-22T04:40:55.140Z,19.40
2023-05-22T04:43:42.950Z,19.80
2023-05-22T04:46:30.498Z,20.10
2023-05-22T04:49:18.239Z,20.30
2023-05-22T04:52:07.353Z,20.40
2023-05-22T04:54:55.660Z,20.50
2023-05-22T04:57:46.177Z,20.80
2023-05-22T05:00:34.271Z,21.00
2023-05-22T05:03:23.034Z,21.10
2023-05-22T05:06:12.584Z,21.50
2023-05-22T05:09:00.278Z,21.70
2023-05-22T05:11:47.826Z,21.70
2023-05-22T05:14:35.403Z,21.50
2023-05-22T05:17:24.039Z,21.60
2023-05-22T05:20:14.735Z,21.50
2023-05-22T05:23:02.550Z,21.50
2023-05-22T05:25:50.185Z,21.50
2023-05-22T05:28:38.095Z,21.30
2023-05-22T05:31:26.333Z,21.40
2023-05-22T05:34:13.876Z,21.50
2023-05-22T05:37:03.378Z,21.80
2023-05-22T05:39:50.968Z,21.90
2023-05-22T05:42:38.553Z,22.10
2023-05-22T05:45:29.661Z,22.10
2023-05-22T05:48:17.307Z,22.10
2023-05-22T05:51:05.368Z,22.20
2023-05-22T05:53:53.478Z,22.30
2023-05-22T05:56:41.383Z,22.30
2023-05-22T05:59:29.000Z,22.10
2023-05-22T06:02:16.711Z,22.10
2023-05-22T06:05:05.596Z,22.10
2023-05-22T06:07:53.363Z,21.70
2023-05-22T06:10:41.505Z,21.60
2023-05-22T06:13:29.406Z,21.30
2023-05-22T06:16:17.098Z,21.00
2023-05-22T06:19:04.942Z,20.60
2023-05-22T06:21:52.640Z,20.40
2023-05-22T06:24:40.274Z,20.30
2023-05-22T06:27:27.911Z,20.20
2023-05-22T06:30:22.409Z,20.10
2023-05-22T06:33:16.114Z,20.10
2023-05-22T06:36:05.129Z,20.20
2023-05-22T06:38:54.801Z,20.30
2023-05-22T06:41:42.421Z,20.40
2023-05-22T06:44:30.868Z,20.50
2023-05-22T06:47:19.506Z,20.60
2023-05-22T06:50:07.860Z,20.70
2023-05-22T06:52:55.383Z,20.80
2023-05-22T06:55:43.158Z,20.80
2023-05-22T06:58:30.721Z,20.90
2023-05-22T07:01:18.609Z,21.10
2023-05-22T07:04:06.311Z,21.30
2023-05-22T07:06:54.153Z,21.40
2023-05-22T07:09:41.737Z,21.60
2023-05-22T07:12:30.220Z,21.70
2023-05-22T07:15:17.805Z,21.80
2023-05-22T07:18:12.692Z,21.90
2023-05-22T07:21:00.310Z,21.80
2023-05-22T07:23:48.032Z,21.90
2023-05-22T07:26:37.571Z,22.10
2023-05-22T07:29:25.055Z,22.20
2023-05-22T07:32:12.593Z,22.30
2023-05-22T07:35:00.027Z,22.40
2023-05-22T07:37:47.565Z,22.50
2023-05-22T07:40:35.104Z,22.60
2023-05-22T07:43:22.682Z,22.70
2023-05-22T07:46:11.986Z,22.80
2023-05-22T07:48:59.591Z,22.90
2023-05-22T07:51:47.395Z,22.90
2023-05-22T07:54:34.937Z,23.10
2023-05-22T07:57:23.403Z,23.10
2023-05-22T08:00:14.700Z,23.10
2023-05-22T08:03:02.801Z,23.10
2023-05-22T08:05:50.640Z,23.10
2023-05-22T08:08:38.173Z,23.30
2023-05-22T08:11:26.579Z,23.20
2023-05-22T08:14:14.095Z,23.30
2023-05-22T08:17:01.789Z,23.60
2023-05-22T08:19:49.414Z,23.70
2023-05-22T08:22:39.574Z,23.80
2023-05-22T08:25:27.029Z,24.00
2023-05-22T08:28:14.642Z,24.00
2023-05-22T08:31:02.700Z,24.00
2023-05-22T08:33:50.233Z,24.00
2023-05-22T08:36:37.812Z,24.20
2023-05-22T08:39:25.943Z,24.30
2023-05-22T08:42:13.956Z,24.50
2023-05-22T08:45:01.617Z,24.60
2023-05-22T08:47:54.429Z,24.80
2023-05-22T08:50:43.786Z,25.00
2023-05-22T08:53:44.056Z,25.10
2023-05-22T08:56:33.325Z,25.00
2023-05-22T08:59:22.334Z,25.10
2023-05-22T09:02:12.617Z,25.10
2023-05-22T09:05:02.325Z,25.10
2023-05-22T09:07:50.096Z,25.10
2023-05-22T09:10:38.189Z,25.30
2023-05-22T09:13:31.895Z,25.40
2023-05-22T09:16:20.310Z,25.40
2023-05-22T09:19:07.906Z,25.60
2023-05-22T09:22:04.346Z,25.70
2023-05-22T09:24:52.516Z,25.90
2023-05-22T09:27:39.977Z,25.80
2023-05-22T09:30:27.482Z,25.90
2023-05-22T09:33:17.373Z,25.90
2023-05-22T09:36:09.293Z,26.10
2023-05-22T09:38:58.167Z,26.10
2023-05-22T09:41:45.685Z,26.30
2023-05-22T09:44:33.296Z,26.50
2023-05-22T09:47:20.941Z,26.70
2023-05-22T09:50:10.783Z,26.80
2023-05-22T09:53:05.251Z,26.70
2023-05-22T09:55:56.707Z,26.80
2023-05-22T09:58:47.848Z,26.90
2023-05-22T10:01:38.907Z,26.90
2023-05-22T10:04:33.236Z,26.90
2023-05-22T10:07:32.699Z,27.00
2023-05-22T10:10:24.724Z,27.00
2023-05-22T10:13:13.221Z,27.10
2023-05-22T10:16:05.894Z,27.00
2023-05-22T10:18:56.430Z,27.10
2023-05-22T10:21:47.358Z,27.10
2023-05-22T10:24:35.603Z,27.30
2023-05-22T10:27:23.139Z,27.40
2023-05-22T10:30:42.640Z,27.60
2023-05-22T10:33:41.978Z,27.80
2023-05-22T10:37:16.627Z,27.70
2023-05-22T10:40:16.396Z,27.70
2023-05-22T10:43:04.704Z,27.80
2023-05-22T10:46:07.220Z,27.90
2023-05-22T10:48:58.260Z,27.90
2023-05-22T10:51:45.942Z,27.90
2023-05-22T10:54:42.673Z,27.90
2023-05-22T10:57:34.637Z,28.10
2023-05-22T11:00:25.271Z,28.20
2023-05-22T11:03:18.412Z,28.10
2023-05-22T11:06:08.009Z,28.00
2023-05-22T11:09:00.064Z,27.90
2023-05-22T11:11:48.409Z,27.80
2023-05-22T11:14:37.365Z,27.90
2023-05-22T11:17:31.750Z,28.20
2023-05-22T11:20:24.500Z,28.30
2023-05-22T11:23:12.299Z,28.30
2023-05-22T11:26:22.912Z,28.30
2023-05-22T11:29:11.897Z,28.20
2023-05-22T11:31:59.970Z,28.30
2023-05-22T11:34:50.608Z,28.10
2023-05-22T11:37:42.692Z,27.90
2023-05-22T11:40:30.131Z,28.20
2023-05-22T11:43:30.124Z,28.20
2023-05-22T11:46:18.306Z,28.10
2023-05-22T11:49:06.711Z,28.20
2023-05-22T11:51:54.420Z,28.50
2023-05-22T11:54:47.815Z,28.50
2023-05-22T11:57:36.920Z,28.60
2023-05-22T12:00:24.562Z,28.70
2023-05-22T12:03:13.686Z,28.80
2023-05-22T12:06:02.967Z,28.80
2023-05-22T12:08:51.097Z,28.90
2023-05-22T12:11:38.653Z,28.80
2023-05-22T12:14:28.326Z,28.60
2023-05-22T12:17:17.937Z,28.90
2023-05-22T12:20:07.310Z,28.70
2023-05-22T12:22:57.116Z,28.70
2023-05-22T12:25:44.705Z,28.80
2023-05-22T12:28:33.478Z,28.80
2023-05-22T12:31:22.923Z,29.00
2023-05-22T12:34:10.373Z,28.70
2023-05-22T12:36:57.844Z,28.60
2023-05-22T12:40:01.677Z,28.80
2023-05-22T12:42:49.820Z,28.90
2023-05-22T12:45:37.303Z,29.10
2023-05-22T12:48:26.254Z,29.20
2023-05-22T12:51:13.843Z,29.00
2023-05-22T12:54:03.157Z,29.20
2023-05-22T12:56:50.647Z,29.20
2023-05-22T12:59:38.264Z,29.10
2023-05-22T13:02:26.324Z,28.80
2023-05-22T13:05:13.986Z,28.40
2023-05-22T13:08:01.732Z,28.70
2023-05-22T13:10:49.283Z,29.10
2023-05-22T13:13:36.868Z,29.10
2023-05-22T13:16:24.480Z,29.10
2023-05-22T13:19:12.157Z,29.10
2023-05-22T13:21:59.691Z,29.20
2023-05-22T13:24:47.639Z,29.20
2023-05-22T13:27:35.386Z,29.40
2023-05-22T13:30:22.859Z,29.70
2023-05-22T13:33:11.159Z,29.70
2023-05-22T13:35:58.805Z,29.80
2023-05-22T13:38:46.468Z,29.90
2023-05-22T13:41:34.084Z,30.00
2023-05-22T13:44:22.172Z,30.10
2023-05-22T13:47:10.020Z,30.00
2023-05-22T13:49:57.483Z,30.00
2023-05-22T13:52:45.033Z,29.90
2023-05-22T13:55:32.568Z,30.00
2023-05-22T13:58:20.154Z,29.90
2023-05-22T14:01:07.787Z,30.00
2023-05-22T14:03:55.668Z,29.90
2023-05-22T14:06:43.656Z,30.00
2023-05-22T14:09:31.754Z,30.00
2023-05-22T14:12:19.380Z,30.10
2023-05-22T14:15:07.977Z,30.10
2023-05-22T14:17:55.540Z,30.20
2023-05-22T14:20:44.591Z,30.10
2023-05-22T14:23:32.171Z,30.10
2023-05-22T14:26:19.915Z,30.00
2023-05-22T14:29:07.720Z,30.20
2023-05-22T14:32:04.298Z,30.30
2023-05-22T14:34:52.834Z,30.30
2023-05-22T14:37:40.548Z,30.10
2023-05-22T14:40:28.026Z,30.00
2023-05-22T14:43:15.536Z,30.10
2023-05-22T14:46:03.455Z,30.10
2023-05-22T14:48:51.117Z,30.30
2023-05-22T14:51:38.730Z,29.90
2023-05-22T14:54:27.264Z,29.70
2023-05-22T14:57:14.877Z,29.70
2023-05-22T15:00:04.865Z,29.70
2023-05-22T15:02:52.554Z,29.60
2023-05-22T15:05:40.412Z,29.60
2023-05-22T15:08:28.102Z,29.30
2023-05-22T15:11:15.574Z,29.20
2023-05-22T15:14:03.195Z,29.10
2023-05-22T15:16:50.825Z,28.90
2023-05-22T15:19:38.487Z,28.90
2023-05-22T15:22:26.014Z,28.80
2023-05-22T15:25:15.464Z,28.70
2023-05-22T15:28:07.935Z,28.60
2023-05-22T15:30:55.501Z,28.30
2023-05-22T15:33:43.089Z,28.40
2023-05-22T15:36:32.945Z,28.20
2023-05-22T15:39:20.559Z,28.10
2023-05-22T15:42:08.250Z,28.00
2023-05-22T15:44:56.138Z,27.80
2023-05-22T15:47:43.845Z,27.80
2023-05-22T15:50:33.587Z,27.80
2023-05-22T15:53:22.264Z,27.90
2023-05-22T15:56:10.132Z,27.90
2023-05-22T15:58:57.544Z,28.00
2023-05-22T16:01:45.298Z,27.90
2023-05-22T16:04:33.042Z,27.80
2023-05-22T16:07:20.646Z,27.60
2023-05-22T16:10:08.885Z,27.50
2023-05-22T16:12:56.595Z,27.50
2023-05-22T16:15:44.718Z,27.50
2023-05-22T16:18:32.919Z,27.50
2023-05-22T16:21:20.611Z,27.50
2023-05-22T16:24:08.927Z,27.50
2023-05-22T16:26:59.139Z,27.40
2023-05-22T16:29:46.746Z,27.60
2023-05-22T16:32:34.669Z,27.60
2023-05-22T16:35:22.485Z,27.60
2023-05-22T16:38:12.250Z,27.50
2023-05-22T16:40:59.947Z,27.40
2023-05-22T16:43:47.462Z,27.40
2023-05-22T16:46:35.001Z,27.40
2023-05-22T16:49:22.479Z,27.30
2023-05-22T16:52:10.172Z,27.30
2023-05-22T16:54:57.645Z,27.60
2023-05-22T16:57:46.917Z,27.80
2023-05-22T17:00:34.569Z,28.00
2023-05-22T17:03:22.545Z,28.30
2023-05-22T17:06:10.487Z,28.60
2023-05-22T17:08:58.120Z,28.80
2023-05-22T17:11:46.182Z,28.90
2023-05-22T17:14:34.502Z,29.00
2023-05-22T17:17:22.049Z,29.20
2023-05-22T17:20:10.417Z,29.60
2023-05-22T17:22:57.894Z,29.60
2023-05-22T17:25:48.827Z,29.30
2023-05-22T17:28:36.480Z,29.20
2023-05-22T17:31:24.077Z,29.00
2023-05-22T17:34:11.589Z,28.90
2023-05-22T17:36:59.544Z,28.90
2023-05-22T17:39:46.985Z,28.40
2023-05-22T17:42:34.554Z,27.90
2023-05-22T17:45:22.254Z,27.50
2023-05-22T17:48:10.163Z,27.00
2023-05-22T17:50:59.587Z,26.70
2023-05-22T17:53:47.514Z,26.30
2023-05-22T17:56:36.336Z,25.90
2023-05-22T17:59:23.868Z,25.70
2023-05-22T18:02:11.506Z,25.50
2023-05-22T18:04:59.067Z,25.20
2023-05-22T18:07:46.605Z,25.10
2023-05-22T18:10:34.200Z,25.00
2023-05-22T18:13:21.724Z,24.80
2023-05-22T18:16:09.342Z,24.60
2023-05-22T18:18:56.898Z,24.50
2023-05-22T18:21:44.487Z,24.40
2023-05-22T18:24:32.886Z,24.20
2023-05-22T18:27:20.734Z,24.00
2023-05-22T18:30:09.521Z,24.00
2023-05-22T18:32:56.985Z,23.90
2023-05-22T18:35:44.564Z,23.80
2023-05-22T18:38:32.266Z,23.70
2023-05-22T18:41:19.942Z,23.50
2023-05-22T18:44:08.246Z,23.40
2023-05-22T18:46:55.945Z,23.30
2023-05-22T18:49:43.507Z,23.20
2023-05-22T18:52:31.542Z,23.10
2023-05-22T18:55:19.125Z,23.00
2023-05-22T18:58:06.678Z,22.90
2023-05-22T19:00:56.037Z,22.70
2023-05-22T19:03:43.728Z,22.50
2023-05-22T19:06:31.268Z,22.20
2023-05-22T19:09:18.799Z,22.10
2023-05-22T19:12:06.645Z,22.00
2023-05-22T19:14:54.197Z,21.90
2023-05-22T19:17:41.847Z,21.90
2023-05-22T19:20:29.576Z,21.90
2023-05-22T19:23:18.722Z,21.90
2023-05-22T19:26:06.310Z,21.80
2023-05-22T19:28:59.197Z,21.80
2023-05-22T19:31:46.830Z,21.70
2023-05-22T19:34:34.370Z,21.60
2023-05-22T19:37:21.974Z,21.50
2023-05-22T19:40:11.197Z,21.30
2023-05-22T19:42:58.722Z,21.20
2023-05-22T19:45:46.783Z,20.90
2023-05-22T19:48:35.793Z,20.60
2023-05-22T19:51:23.269Z,20.20
2023-05-22T19:54:10.766Z,19.80
2023-05-22T19:56:58.483Z,19.50
2023-05-22T19:59:46.106Z,19.20
2023-05-22T20:02:34.048Z,19.00
2023-05-22T20:05:21.870Z,18.70
2023-05-22T20:08:10.352Z,18.40
2023-05-22T20:10:57.898Z,18.20
2023-05-22T20:13:45.447Z,18.00
2023-05-22T20:16:33.046Z,17.90
2023-05-22T20:19:23.730Z,17.70
2023-05-22T20:22:11.310Z,17.60
2023-05-22T20:24:58.917Z,17.40
2023-05-22T20:27:46.471Z,17.40
2023-05-22T20:30:33.951Z,17.30
2023-05-22T20:33:21.512Z,17.10
2023-05-22T20:36:09.427Z,17.10
2023-05-22T20:38:58.613Z,17.00
2023-05-22T20:41:50.113Z,17.00
2023-05-22T20:44:38.446Z,16.90
2023-05-22T20:47:25.986Z,16.80
2023-05-22T20:50:13.513Z,16.70
2023-05-22T20:53:01.022Z,16.60
2023-05-22T20:55:48.528Z,16.60
2023-05-22T20:58:39.049Z,16.50
2023-05-22T21:01:26.764Z,16.40
2023-05-22T21:04:14.356Z,16.40
2023-05-22T21:07:01.952Z,16.30
2023-05-22T21:09:49.474Z,16.30
2023-05-22T21:12:37.037Z,16.30
2023-05-22T21:15:24.484Z,16.20
2023-05-22T21:18:12.231Z,16.20
2023-05-22T21:20:59.797Z,16.20
2023-05-22T21:23:49.242Z,16.10
2023-05-22T21:26:37.580Z,16.10
2023-05-22T21:29:25.560Z,16.10
2023-05-22T21:32:13.139Z,16.10
2023-05-22T21:35:00.675Z,16.10
2023-05-22T21:37:48.187Z,16.00
2023-05-22T21:40:35.749Z,16.00
2023-05-22T21:43:23.444Z,15.90
2023-05-22T21:46:11.271Z,15.90
2023-05-22T21:48:58.875Z,15.80
2023-05-22T21:51:46.482Z,15.80
2023-05-22T21:54:34.044Z,15.80
2023-05-22T21:57:21.769Z,15.70
2023-05-22T22:00:10.050Z,15.60
2023-05-22T22:02:57.965Z,15.60
2023-05-22T22:05:45.717Z,15.60
2023-05-22T22:08:33.309Z,15.50
2023-05-22T22:11:21.614Z,15.50
2023-05-22T22:14:09.302Z,15.50
2023-05-22T22:16:56.966Z,15.50
2023-05-22T22:19:44.822Z,15.40
2023-05-22T22:22:32.308Z,15.40
2023-05-22T22:25:19.973Z,15.30
2023-05-22T22:28:07.808Z,15.20
2023-05-22T22:30:55.574Z,15.10
2023-05-22T22:33:43.107Z,15.00
2023-05-22T22:36:31.694Z,15.00
2023-05-22T22:39:19.215Z,14.90
2023-05-22T22:42:07.754Z,14.90
2023-05-22T22:44:55.242Z,14.90
2023-05-22T22:47:42.754Z,14.90
2023-05-22T22:50:30.360Z,14.90
2023-05-22T22:53:18.348Z,14.90
2023-05-22T22:56:06.279Z,14.90
2023-05-22T22:58:53.773Z,14.80
2023-05-22T23:01:41.326Z,14.80
2023-05-22T23:04:28.926Z,14.70
2023-05-22T23:07:16.588Z,14.70
2023-05-22T23:10:04.497Z,14.60
2023-05-22T23:12:52.063Z,14.60
2023-05-22T23:15:39.906Z,14.60
2023-05-22T23:18:58.361Z,14.50
2023-05-22T23:21:46.176Z,14.50
2023-05-22T23:24:33.665Z,14.50
2023-05-22T23:27:22.097Z,14.40
2023-05-22T23:30:10.167Z,14.30
2023-05-22T23:32:57.761Z,14.30
2023-05-22T23:35:45.777Z,14.30
2023-05-22T23:38:33.669Z,14.30
2023-05-22T23:41:21.270Z,14.20
2023-05-22T23:44:08.873Z,14.20
2023-05-22T23:46:56.739Z,14.20
2023-05-22T23:49:44.533Z,14.10
2023-05-22T23:52:32.221Z,14.10
2023-05-22T23:55:19.853Z,14.00
2023-05-22T23:58:07.336Z,13.90
